Wrightsville, Arkansas
Current Conditions -  °F | °C
As of 5:53 PM on Wednesday 22 Oct 2014 (Local Time) from KLIT Reporting Station
Clear Clear  
Wind Chill: 68°   Ceiling: Unl
Heat Index: 68°   Visibility: 10mi
Dew Point: 47°   Wind: 10mph
Humidity: 47%   Direction: 60°ENE
Pressure: 30.16"   Gusts: NA
Location:  34.6°N, 92.22°W
Report Text: KLIT 222253Z 06009KT 10SM CLR 20/08 A3016 RMK AO2 SLP213 T02000083
Loading
Personal Weather Stations






























Interactive Weather Map
Tropical Storm Tracking
New forecast layout! Learn more

10-Day Weather Forecast

Advertisements
Track Severe Weather on mobile